sensor_id;sensor_type;location;lat;lon;timestamp;pressure;altitude;pressure_sealevel;temperature;humidity
72428;BME280;60419;48.880;18.036;2022-09-09T00:00:34;98832.50;;;18.82;68.65
72428;BME280;60419;48.880;18.036;2022-09-09T00:03:26;98837.19;;;18.82;68.60
72428;BME280;60419;48.880;18.036;2022-09-09T00:06:21;98838.00;;;18.86;68.15
72428;BME280;60419;48.880;18.036;2022-09-09T00:12:34;98831.88;;;18.70;68.57
72428;BME280;60419;48.880;18.036;2022-09-09T00:15:22;98826.47;;;18.73;68.33
72428;BME280;60419;48.880;18.036;2022-09-09T00:18:25;98841.69;;;18.51;69.14
72428;BME280;60419;48.880;18.036;2022-09-09T00:21:15;98843.25;;;18.52;69.07
72428;BME280;60419;48.880;18.036;2022-09-09T00:24:24;98835.47;;;18.31;69.69
72428;BME280;60419;48.880;18.036;2022-09-09T00:27:29;98832.81;;;18.35;69.63
72428;BME280;60419;48.880;18.036;2022-09-09T00:30:25;98823.88;;;18.38;68.75
72428;BME280;60419;48.880;18.036;2022-09-09T00:33:12;98833.00;;;18.26;69.81
72428;BME280;60419;48.880;18.036;2022-09-09T00:36:00;98840.72;;;18.20;69.64
72428;BME280;60419;48.880;18.036;2022-09-09T00:38:51;98813.31;;;17.97;69.27
72428;BME280;60419;48.880;18.036;2022-09-09T00:45:10;98842.72;;;18.23;69.17
72428;BME280;60419;48.880;18.036;2022-09-09T00:47:59;98852.31;;;18.14;68.98
72428;BME280;60419;48.880;18.036;2022-09-09T00:56:20;98857.22;;;17.85;69.85
72428;BME280;60419;48.880;18.036;2022-09-09T01:02:31;98861.38;;;17.98;69.26
72428;BME280;60419;48.880;18.036;2022-09-09T01:05:33;98871.75;;;18.09;68.79
72428;BME280;60419;48.880;18.036;2022-09-09T01:14:51;98862.25;;;17.67;70.57
72428;BME280;60419;48.880;18.036;2022-09-09T01:20:47;98855.53;;;18.00;69.20
72428;BME280;60419;48.880;18.036;2022-09-09T01:23:52;98855.75;;;16.89;72.98
72428;BME280;60419;48.880;18.036;2022-09-09T01:26:46;98856.47;;;16.86;74.67
72428;BME280;60419;48.880;18.036;2022-09-09T01:29:32;98851.09;;;16.89;73.50
72428;BME280;60419;48.880;18.036;2022-09-09T01:32:49;98853.34;;;17.19;72.25
72428;BME280;60419;48.880;18.036;2022-09-09T01:38:27;98858.47;;;17.21;72.78
72428;BME280;60419;48.880;18.036;2022-09-09T01:41:13;98870.16;;;17.37;71.65
72428;BME280;60419;48.880;18.036;2022-09-09T01:43:58;98873.88;;;17.29;72.25
72428;BME280;60419;48.880;18.036;2022-09-09T01:46:44;98873.41;;;17.43;71.46
72428;BME280;60419;48.880;18.036;2022-09-09T01:49:29;98881.41;;;17.51;70.77
72428;BME280;60419;48.880;18.036;2022-09-09T01:52:16;98873.56;;;17.50;70.98
72428;BME280;60419;48.880;18.036;2022-09-09T01:55:01;98871.16;;;17.13;72.02
72428;BME280;60419;48.880;18.036;2022-09-09T01:58:05;98880.09;;;17.45;70.77
72428;BME280;60419;48.880;18.036;2022-09-09T02:01:07;98893.50;;;17.19;71.77
72428;BME280;60419;48.880;18.036;2022-09-09T02:03:59;98897.28;;;17.14;71.52
72428;BME280;60419;48.880;18.036;2022-09-09T02:06:48;98900.69;;;17.43;70.82
72428;BME280;60419;48.880;18.036;2022-09-09T02:09:36;98895.06;;;17.51;70.10
72428;BME280;60419;48.880;18.036;2022-09-09T02:12:22;98877.47;;;17.33;70.96
72428;BME280;60419;48.880;18.036;2022-09-09T02:15:43;98895.63;;;17.09;71.80
72428;BME280;60419;48.880;18.036;2022-09-09T02:18:35;98898.50;;;17.32;70.46
72428;BME280;60419;48.880;18.036;2022-09-09T02:21:24;98892.97;;;17.13;71.66
72428;BME280;60419;48.880;18.036;2022-09-09T02:24:12;98898.69;;;17.40;70.57
72428;BME280;60419;48.880;18.036;2022-09-09T02:27:02;98902.41;;;17.15;71.73
72428;BME280;60419;48.880;18.036;2022-09-09T02:29:51;98899.16;;;16.66;74.10
72428;BME280;60419;48.880;18.036;2022-09-09T02:32:39;98899.56;;;16.80;74.02
72428;BME280;60419;48.880;18.036;2022-09-09T02:35:28;98905.66;;;16.89;73.09
72428;BME280;60419;48.880;18.036;2022-09-09T02:38:16;98897.00;;;16.43;74.93
72428;BME280;60419;48.880;18.036;2022-09-09T02:41:01;98899.16;;;16.66;74.65
72428;BME280;60419;48.880;18.036;2022-09-09T02:43:47;98900.47;;;17.00;73.28
72428;BME280;60419;48.880;18.036;2022-09-09T02:50:05;98899.13;;;17.42;71.37
72428;BME280;60419;48.880;18.036;2022-09-09T02:53:06;98897.28;;;16.98;71.38
72428;BME280;60419;48.880;18.036;2022-09-09T02:56:05;98889.31;;;16.05;74.42
72428;BME280;60419;48.880;18.036;2022-09-09T02:58:54;98901.06;;;16.21;74.58
72428;BME280;60419;48.880;18.036;2022-09-09T03:01:40;98908.38;;;16.89;71.59
72428;BME280;60419;48.880;18.036;2022-09-09T03:04:25;98905.59;;;16.74;71.04
72428;BME280;60419;48.880;18.036;2022-09-09T03:07:11;98902.06;;;16.57;71.31
72428;BME280;60419;48.880;18.036;2022-09-09T03:09:57;98906.25;;;16.83;70.89
72428;BME280;60419;48.880;18.036;2022-09-09T03:12:43;98912.06;;;16.81;71.00
72428;BME280;60419;48.880;18.036;2022-09-09T03:15:28;98908.84;;;16.35;73.47
72428;BME280;60419;48.880;18.036;2022-09-09T03:18:15;98910.66;;;16.03;74.47
72428;BME280;60419;48.880;18.036;2022-09-09T03:21:00;98904.75;;;16.01;73.62
72428;BME280;60419;48.880;18.036;2022-09-09T03:23:46;98904.97;;;16.08;73.48
72428;BME280;60419;48.880;18.036;2022-09-09T03:26:32;98910.50;;;16.52;72.05
72428;BME280;60419;48.880;18.036;2022-09-09T03:29:18;98921.84;;;16.26;72.91
72428;BME280;60419;48.880;18.036;2022-09-09T03:32:03;98907.97;;;16.31;72.93
72428;BME280;60419;48.880;18.036;2022-09-09T03:34:49;98919.91;;;16.26;73.05
72428;BME280;60419;48.880;18.036;2022-09-09T03:37:37;98924.47;;;16.50;71.56
72428;BME280;60419;48.880;18.036;2022-09-09T03:40:23;98918.47;;;16.04;72.83
72428;BME280;60419;48.880;18.036;2022-09-09T03:43:09;98917.97;;;16.55;71.85
72428;BME280;60419;48.880;18.036;2022-09-09T03:45:55;98914.72;;;16.49;71.62
72428;BME280;60419;48.880;18.036;2022-09-09T03:48:43;98925.25;;;16.51;71.11
72428;BME280;60419;48.880;18.036;2022-09-09T03:51:29;98934.75;;;15.76;73.97
72428;BME280;60419;48.880;18.036;2022-09-09T03:54:14;98922.47;;;14.96;76.61
72428;BME280;60419;48.880;18.036;2022-09-09T03:56:59;98933.06;;;14.44;79.35
72428;BME280;60419;48.880;18.036;2022-09-09T03:59:45;98938.56;;;14.68;78.90
72428;BME280;60419;48.880;18.036;2022-09-09T04:02:30;98938.50;;;15.47;76.70
72428;BME280;60419;48.880;18.036;2022-09-09T04:05:16;98932.03;;;15.39;76.73
72428;BME280;60419;48.880;18.036;2022-09-09T04:08:01;98943.88;;;13.51;84.36
72428;BME280;60419;48.880;18.036;2022-09-09T04:10:48;98920.31;;;13.05;87.37
72428;BME280;60419;48.880;18.036;2022-09-09T04:13:35;98931.38;;;13.29;87.93
72428;BME280;60419;48.880;18.036;2022-09-09T04:16:22;98937.63;;;13.59;86.44
72428;BME280;60419;48.880;18.036;2022-09-09T04:19:08;98939.91;;;13.49;88.10
72428;BME280;60419;48.880;18.036;2022-09-09T04:21:53;98942.41;;;14.13;86.26
72428;BME280;60419;48.880;18.036;2022-09-09T04:24:38;98937.31;;;14.66;83.16
72428;BME280;60419;48.880;18.036;2022-09-09T04:27:24;98928.16;;;15.16;80.41
72428;BME280;60419;48.880;18.036;2022-09-09T04:30:10;98913.38;;;14.80;80.87
72428;BME280;60419;48.880;18.036;2022-09-09T04:32:56;98922.44;;;14.84;80.79
72428;BME280;60419;48.880;18.036;2022-09-09T04:35:49;98925.34;;;14.67;81.01
72428;BME280;60419;48.880;18.036;2022-09-09T04:38:35;98924.41;;;14.96;80.82
72428;BME280;60419;48.880;18.036;2022-09-09T04:41:21;98921.84;;;15.49;78.25
72428;BME280;60419;48.880;18.036;2022-09-09T04:44:06;98924.53;;;15.73;76.56
72428;BME280;60419;48.880;18.036;2022-09-09T04:46:52;98927.72;;;15.63;77.68
72428;BME280;60419;48.880;18.036;2022-09-09T04:49:37;98926.59;;;15.76;77.38
72428;BME280;60419;48.880;18.036;2022-09-09T04:52:23;98930.22;;;15.93;76.44
72428;BME280;60419;48.880;18.036;2022-09-09T04:55:09;98926.47;;;15.97;76.13
72428;BME280;60419;48.880;18.036;2022-09-09T04:57:54;98925.94;;;15.43;77.73
72428;BME280;60419;48.880;18.036;2022-09-09T05:00:40;98934.53;;;15.57;76.77
72428;BME280;60419;48.880;18.036;2022-09-09T05:03:25;98932.25;;;15.83;74.93
72428;BME280;60419;48.880;18.036;2022-09-09T05:06:14;98929.41;;;15.68;75.28
72428;BME280;60419;48.880;18.036;2022-09-09T05:09:00;98917.72;;;16.32;73.47
72428;BME280;60419;48.880;18.036;2022-09-09T05:11:46;98925.13;;;16.60;72.70
72428;BME280;60419;48.880;18.036;2022-09-09T05:14:31;98930.13;;;16.58;72.83
72428;BME280;60419;48.880;18.036;2022-09-09T05:17:17;98929.31;;;16.57;73.39
72428;BME280;60419;48.880;18.036;2022-09-09T05:20:03;98935.03;;;16.12;74.78
72428;BME280;60419;48.880;18.036;2022-09-09T05:22:53;98940.06;;;16.66;73.74
72428;BME280;60419;48.880;18.036;2022-09-09T05:25:39;98946.41;;;16.98;72.92
72428;BME280;60419;48.880;18.036;2022-09-09T05:28:27;98935.59;;;17.18;71.92
72428;BME280;60419;48.880;18.036;2022-09-09T05:31:14;98939.44;;;17.17;71.60
72428;BME280;60419;48.880;18.036;2022-09-09T05:34:00;98920.97;;;16.94;71.74
72428;BME280;60419;48.880;18.036;2022-09-09T05:36:45;98937.88;;;16.71;72.94
72428;BME280;60419;48.880;18.036;2022-09-09T05:39:32;98943.31;;;17.00;72.61
72428;BME280;60419;48.880;18.036;2022-09-09T05:42:18;98943.09;;;16.77;73.78
72428;BME280;60419;48.880;18.036;2022-09-09T05:45:04;98936.91;;;17.08;73.13
72428;BME280;60419;48.880;18.036;2022-09-09T05:47:56;98938.31;;;17.02;73.17
72428;BME280;60419;48.880;18.036;2022-09-09T05:50:42;98932.69;;;17.26;72.17
72428;BME280;60419;48.880;18.036;2022-09-09T05:53:30;98931.25;;;15.63;78.36
72428;BME280;60419;48.880;18.036;2022-09-09T05:56:23;98932.31;;;16.12;76.37
72428;BME280;60419;48.880;18.036;2022-09-09T05:59:10;98920.63;;;16.11;77.28
72428;BME280;60419;48.880;18.036;2022-09-09T06:01:56;98929.50;;;16.64;75.09
72428;BME280;60419;48.880;18.036;2022-09-09T06:04:41;98925.91;;;15.18;79.26
72428;BME280;60419;48.880;18.036;2022-09-09T06:07:27;98932.72;;;14.24;84.40
72428;BME280;60419;48.880;18.036;2022-09-09T06:10:12;98925.34;;;14.46;84.00
72428;BME280;60419;48.880;18.036;2022-09-09T06:12:58;98935.63;;;14.40;84.76
72428;BME280;60419;48.880;18.036;2022-09-09T06:15:51;98927.22;;;14.54;85.30
72428;BME280;60419;48.880;18.036;2022-09-09T06:18:40;98927.47;;;13.77;87.42
72428;BME280;60419;48.880;18.036;2022-09-09T06:21:28;98925.25;;;14.21;86.52
72428;BME280;60419;48.880;18.036;2022-09-09T06:24:15;98932.81;;;14.16;87.33
72428;BME280;60419;48.880;18.036;2022-09-09T06:27:02;98936.19;;;14.34;87.56
72428;BME280;60419;48.880;18.036;2022-09-09T06:29:48;98928.44;;;14.02;87.18
72428;BME280;60419;48.880;18.036;2022-09-09T06:32:33;98942.22;;;13.68;90.44
72428;BME280;60419;48.880;18.036;2022-09-09T06:35:20;98936.03;;;13.88;89.49
72428;BME280;60419;48.880;18.036;2022-09-09T06:38:05;98943.00;;;14.40;87.58
72428;BME280;60419;48.880;18.036;2022-09-09T06:40:55;98958.97;;;14.20;89.61
72428;BME280;60419;48.880;18.036;2022-09-09T06:43:41;98957.94;;;14.46;87.51
72428;BME280;60419;48.880;18.036;2022-09-09T06:46:29;98955.94;;;15.09;84.80
72428;BME280;60419;48.880;18.036;2022-09-09T06:49:16;98976.59;;;15.47;82.37
72428;BME280;60419;48.880;18.036;2022-09-09T06:52:01;98973.88;;;15.23;82.43
72428;BME280;60419;48.880;18.036;2022-09-09T06:54:46;98982.63;;;15.53;82.60
72428;BME280;60419;48.880;18.036;2022-09-09T06:57:32;98982.41;;;15.95;80.10
72428;BME280;60419;48.880;18.036;2022-09-09T07:00:17;98973.25;;;16.27;78.53
72428;BME280;60419;48.880;18.036;2022-09-09T07:03:03;98975.47;;;16.10;79.29
72428;BME280;60419;48.880;18.036;2022-09-09T07:05:55;98948.00;;;16.43;77.36
72428;BME280;60419;48.880;18.036;2022-09-09T07:08:41;98954.47;;;15.12;81.87
72428;BME280;60419;48.880;18.036;2022-09-09T07:11:28;98982.72;;;14.86;84.29
72428;BME280;60419;48.880;18.036;2022-09-09T07:14:15;98976.66;;;15.02;83.23
72428;BME280;60419;48.880;18.036;2022-09-09T07:17:00;98974.84;;;15.06;84.12
72428;BME280;60419;48.880;18.036;2022-09-09T07:19:46;98974.91;;;15.43;82.08
72428;BME280;60419;48.880;18.036;2022-09-09T07:22:32;98977.44;;;15.84;80.74
72428;BME280;60419;48.880;18.036;2022-09-09T07:25:18;98966.44;;;16.34;79.13
72428;BME280;60419;48.880;18.036;2022-09-09T07:28:05;98966.03;;;16.19;79.79
72428;BME280;60419;48.880;18.036;2022-09-09T07:31:00;98965.56;;;16.17;78.27
72428;BME280;60419;48.880;18.036;2022-09-09T07:33:48;98963.31;;;15.58;80.33
72428;BME280;60419;48.880;18.036;2022-09-09T07:36:38;98950.28;;;16.00;78.99
72428;BME280;60419;48.880;18.036;2022-09-09T07:39:24;98956.63;;;15.68;80.79
72428;BME280;60419;48.880;18.036;2022-09-09T07:42:10;98960.72;;;16.11;79.20
72428;BME280;60419;48.880;18.036;2022-09-09T07:44:56;98939.50;;;16.44;77.13
72428;BME280;60419;48.880;18.036;2022-09-09T07:47:42;98941.22;;;17.25;74.68
72428;BME280;60419;48.880;18.036;2022-09-09T07:50:28;98911.31;;;17.64;72.43
72428;BME280;60419;48.880;18.036;2022-09-09T07:53:13;98912.88;;;15.85;78.33
72428;BME280;60419;48.880;18.036;2022-09-09T07:56:18;98920.78;;;16.02;78.89
72428;BME280;60419;48.880;18.036;2022-09-09T07:59:03;98925.22;;;16.23;77.90
72428;BME280;60419;48.880;18.036;2022-09-09T08:01:52;98926.44;;;16.94;76.03
72428;BME280;60419;48.880;18.036;2022-09-09T08:04:39;98927.00;;;16.03;78.61
72428;BME280;60419;48.880;18.036;2022-09-09T08:07:24;98919.16;;;16.01;77.62
72428;BME280;60419;48.880;18.036;2022-09-09T08:10:10;98920.59;;;16.23;77.52
72428;BME280;60419;48.880;18.036;2022-09-09T08:12:55;98919.25;;;16.45;75.41
72428;BME280;60419;48.880;18.036;2022-09-09T08:15:41;98926.22;;;16.02;76.92
72428;BME280;60419;48.880;18.036;2022-09-09T08:18:27;98926.78;;;16.64;76.24
72428;BME280;60419;48.880;18.036;2022-09-09T08:21:15;98924.66;;;16.86;73.59
72428;BME280;60419;48.880;18.036;2022-09-09T08:24:03;98942.75;;;16.50;74.87
72428;BME280;60419;48.880;18.036;2022-09-09T08:26:50;98932.38;;;16.56;74.89
72428;BME280;60419;48.880;18.036;2022-09-09T08:29:35;98938.13;;;17.10;74.21
72428;BME280;60419;48.880;18.036;2022-09-09T08:32:22;98939.16;;;17.53;71.78
72428;BME280;60419;48.880;18.036;2022-09-09T08:35:08;98939.34;;;17.61;71.57
72428;BME280;60419;48.880;18.036;2022-09-09T08:37:54;98954.91;;;17.92;70.45
72428;BME280;60419;48.880;18.036;2022-09-09T08:40:43;98957.88;;;18.02;69.73
72428;BME280;60419;48.880;18.036;2022-09-09T08:43:34;98947.69;;;18.38;68.20
72428;BME280;60419;48.880;18.036;2022-09-09T08:46:26;98954.34;;;18.99;67.62
72428;BME280;60419;48.880;18.036;2022-09-09T08:49:42;98957.53;;;19.01;66.33
72428;BME280;60419;48.880;18.036;2022-09-09T08:52:31;98940.94;;;19.37;65.11
72428;BME280;60419;48.880;18.036;2022-09-09T08:55:45;98950.41;;;19.43;66.27
72428;BME280;60419;48.880;18.036;2022-09-09T08:58:33;98957.88;;;19.23;65.24
72428;BME280;60419;48.880;18.036;2022-09-09T09:04:38;98944.41;;;19.33;64.84
72428;BME280;60419;48.880;18.036;2022-09-09T09:11:01;98938.59;;;19.62;63.95
72428;BME280;60419;48.880;18.036;2022-09-09T09:14:12;98933.38;;;19.80;63.31
72428;BME280;60419;48.880;18.036;2022-09-09T09:17:14;98915.09;;;19.61;63.27
72428;BME280;60419;48.880;18.036;2022-09-09T09:20:03;98930.94;;;19.02;64.47
72428;BME280;60419;48.880;18.036;2022-09-09T09:22:52;98904.59;;;19.40;62.54
72428;BME280;60419;48.880;18.036;2022-09-09T09:25:41;98922.25;;;19.69;62.12
72428;BME280;60419;48.880;18.036;2022-09-09T09:28:30;98927.53;;;20.38;59.77
72428;BME280;60419;48.880;18.036;2022-09-09T09:31:19;98918.09;;;19.52;61.90
72428;BME280;60419;48.880;18.036;2022-09-09T09:34:05;98925.00;;;20.26;60.06
72428;BME280;60419;48.880;18.036;2022-09-09T09:36:57;98927.69;;;20.22;59.12
72428;BME280;60419;48.880;18.036;2022-09-09T09:39:43;98923.84;;;20.60;57.80
72428;BME280;60419;48.880;18.036;2022-09-09T09:42:28;98919.56;;;21.04;57.29
72428;BME280;60419;48.880;18.036;2022-09-09T09:45:26;98903.56;;;21.58;55.37
72428;BME280;60419;48.880;18.036;2022-09-09T09:48:14;98917.66;;;21.53;54.74
72428;BME280;60419;48.880;18.036;2022-09-09T09:51:02;98920.03;;;21.13;55.52
72428;BME280;60419;48.880;18.036;2022-09-09T09:53:51;98920.09;;;21.17;54.74
72428;BME280;60419;48.880;18.036;2022-09-09T09:56:39;98921.00;;;20.53;54.89
72428;BME280;60419;48.880;18.036;2022-09-09T10:02:14;98909.41;;;21.56;52.54
72428;BME280;60419;48.880;18.036;2022-09-09T10:05:47;98903.72;;;20.87;52.91
72428;BME280;60419;48.880;18.036;2022-09-09T10:08:15;98907.22;;;21.83;53.36
72428;BME280;60419;48.880;18.036;2022-09-09T10:14:07;98909.06;;;21.65;52.56
72428;BME280;60419;48.880;18.036;2022-09-09T10:20:12;98917.66;;;22.15;49.58
72428;BME280;60419;48.880;18.036;2022-09-09T10:35:27;98904.66;;;21.49;52.49
72428;BME280;60419;48.880;18.036;2022-09-09T10:53:45;98877.59;;;22.21;50.03
72428;BME280;60419;48.880;18.036;2022-09-09T10:56:34;98891.00;;;21.60;50.86
72428;BME280;60419;48.880;18.036;2022-09-09T10:59:24;98896.22;;;21.83;50.06
72428;BME280;60419;48.880;18.036;2022-09-09T11:02:16;98901.63;;;22.46;49.81
72428;BME280;60419;48.880;18.036;2022-09-09T11:05:17;98891.69;;;21.46;51.21
72428;BME280;60419;48.880;18.036;2022-09-09T11:08:09;98897.59;;;21.52;51.03
72428;BME280;60419;48.880;18.036;2022-09-09T11:10:58;98895.81;;;21.78;50.25
72428;BME280;60419;48.880;18.036;2022-09-09T11:14:11;98892.38;;;21.29;51.20
72428;BME280;60419;48.880;18.036;2022-09-09T11:17:00;98897.66;;;22.32;49.18
72428;BME280;60419;48.880;18.036;2022-09-09T11:19:46;98892.59;;;22.42;47.42
72428;BME280;60419;48.880;18.036;2022-09-09T11:22:37;98901.78;;;22.96;46.52
72428;BME280;60419;48.880;18.036;2022-09-09T11:25:33;98893.13;;;23.22;45.76
72428;BME280;60419;48.880;18.036;2022-09-09T11:40:30;98869.00;;;22.37;47.66
72428;BME280;60419;48.880;18.036;2022-09-09T11:43:24;98877.25;;;22.33;45.80
72428;BME280;60419;48.880;18.036;2022-09-09T11:46:11;98878.84;;;22.56;45.21
72428;BME280;60419;48.880;18.036;2022-09-09T11:49:01;98886.69;;;22.40;47.11
72428;BME280;60419;48.880;18.036;2022-09-09T11:51:47;98871.88;;;23.05;45.78
72428;BME280;60419;48.880;18.036;2022-09-09T11:54:46;98869.84;;;23.70;44.70
72428;BME280;60419;48.880;18.036;2022-09-09T11:57:35;98859.66;;;23.45;45.39
72428;BME280;60419;48.880;18.036;2022-09-09T12:00:35;98867.09;;;23.70;45.53
72428;BME280;60419;48.880;18.036;2022-09-09T12:03:46;98874.47;;;24.02;45.10
72428;BME280;60419;48.880;18.036;2022-09-09T12:06:43;98852.47;;;23.87;45.44
72428;BME280;60419;48.880;18.036;2022-09-09T12:12:44;98862.81;;;22.83;46.72
72428;BME280;60419;48.880;18.036;2022-09-09T12:15:29;98871.81;;;22.62;46.93
72428;BME280;60419;48.880;18.036;2022-09-09T12:18:31;98876.41;;;22.22;48.55
72428;BME280;60419;48.880;18.036;2022-09-09T12:24:32;98888.78;;;22.86;46.72
72428;BME280;60419;48.880;18.036;2022-09-09T12:31:10;98868.69;;;23.32;44.81
72428;BME280;60419;48.880;18.036;2022-09-09T12:34:10;98864.78;;;23.47;44.23
72428;BME280;60419;48.880;18.036;2022-09-09T12:37:02;98851.38;;;23.49;43.33
72428;BME280;60419;48.880;18.036;2022-09-09T12:39:58;98855.69;;;23.39;42.96
72428;BME280;60419;48.880;18.036;2022-09-09T12:42:44;98858.06;;;23.52;43.63
72428;BME280;60419;48.880;18.036;2022-09-09T12:45:31;98873.81;;;23.30;43.53
72428;BME280;60419;48.880;18.036;2022-09-09T12:48:19;98834.38;;;23.76;43.41
72428;BME280;60419;48.880;18.036;2022-09-09T12:51:18;98842.34;;;23.49;43.23
72428;BME280;60419;48.880;18.036;2022-09-09T12:54:04;98850.97;;;23.36;43.77
72428;BME280;60419;48.880;18.036;2022-09-09T12:56:50;98854.91;;;23.57;43.64
72428;BME280;60419;48.880;18.036;2022-09-09T12:59:38;98856.50;;;23.47;42.85
72428;BME280;60419;48.880;18.036;2022-09-09T13:02:25;98836.28;;;23.89;42.13
72428;BME280;60419;48.880;18.036;2022-09-09T13:05:17;98833.00;;;24.23;41.56
72428;BME280;60419;48.880;18.036;2022-09-09T13:08:13;98836.63;;;24.76;40.43
72428;BME280;60419;48.880;18.036;2022-09-09T13:11:06;98810.41;;;23.55;42.19
72428;BME280;60419;48.880;18.036;2022-09-09T13:13:54;98826.75;;;24.05;42.08
72428;BME280;60419;48.880;18.036;2022-09-09T13:16:41;98826.28;;;24.31;41.97
72428;BME280;60419;48.880;18.036;2022-09-09T13:19:37;98822.03;;;24.09;40.55
72428;BME280;60419;48.880;18.036;2022-09-09T13:22:31;98823.59;;;24.10;41.01
72428;BME280;60419;48.880;18.036;2022-09-09T13:25:21;98823.03;;;24.44;40.75
72428;BME280;60419;48.880;18.036;2022-09-09T13:28:27;98814.41;;;24.38;39.05
72428;BME280;60419;48.880;18.036;2022-09-09T13:31:32;98805.13;;;23.96;39.88
72428;BME280;60419;48.880;18.036;2022-09-09T13:34:33;98807.91;;;23.96;38.67
72428;BME280;60419;48.880;18.036;2022-09-09T13:37:33;98807.28;;;24.41;39.47
72428;BME280;60419;48.880;18.036;2022-09-09T13:40:21;98797.59;;;24.74;37.79
72428;BME280;60419;48.880;18.036;2022-09-09T13:43:17;98790.22;;;23.90;38.74
72428;BME280;60419;48.880;18.036;2022-09-09T13:52:17;98786.28;;;23.87;39.24
72428;BME280;60419;48.880;18.036;2022-09-09T13:55:04;98778.59;;;24.27;39.06
72428;BME280;60419;48.880;18.036;2022-09-09T13:57:57;98782.53;;;24.30;39.03
72428;BME280;60419;48.880;18.036;2022-09-09T14:00:42;98782.09;;;23.47;41.17
72428;BME280;60419;48.880;18.036;2022-09-09T14:03:29;98783.69;;;23.48;41.10
72428;BME280;60419;48.880;18.036;2022-09-09T14:06:15;98769.84;;;23.55;41.10
72428;BME280;60419;48.880;18.036;2022-09-09T14:09:00;98771.38;;;23.74;40.98
72428;BME280;60419;48.880;18.036;2022-09-09T14:11:45;98763.38;;;23.94;40.43
72428;BME280;60419;48.880;18.036;2022-09-09T14:14:31;98763.03;;;23.81;40.80
72428;BME280;60419;48.880;18.036;2022-09-09T14:17:16;98764.22;;;23.87;40.25
72428;BME280;60419;48.880;18.036;2022-09-09T14:20:03;98769.78;;;23.77;40.53
72428;BME280;60419;48.880;18.036;2022-09-09T14:22:53;98771.44;;;23.56;40.87
72428;BME280;60419;48.880;18.036;2022-09-09T14:25:45;98768.63;;;23.71;40.62
72428;BME280;60419;48.880;18.036;2022-09-09T14:28:31;98771.03;;;23.40;41.22
72428;BME280;60419;48.880;18.036;2022-09-09T14:31:18;98771.16;;;22.90;42.23
72428;BME280;60419;48.880;18.036;2022-09-09T14:34:03;98775.78;;;23.43;41.25
72428;BME280;60419;48.880;18.036;2022-09-09T14:36:49;98772.25;;;23.46;41.11
72428;BME280;60419;48.880;18.036;2022-09-09T14:39:35;98787.22;;;23.49;41.35
72428;BME280;60419;48.880;18.036;2022-09-09T14:42:21;98784.75;;;23.79;40.87
72428;BME280;60419;48.880;18.036;2022-09-09T14:45:07;98779.72;;;23.38;40.97
72428;BME280;60419;48.880;18.036;2022-09-09T14:47:52;98781.69;;;23.52;41.44
72428;BME280;60419;48.880;18.036;2022-09-09T14:50:38;98774.16;;;23.60;41.34
72428;BME280;60419;48.880;18.036;2022-09-09T14:53:25;98771.59;;;24.05;40.89
72428;BME280;60419;48.880;18.036;2022-09-09T14:56:14;98773.66;;;23.86;41.55
72428;BME280;60419;48.880;18.036;2022-09-09T14:59:00;98769.41;;;23.67;41.97
72428;BME280;60419;48.880;18.036;2022-09-09T15:01:48;98765.81;;;23.85;41.19
72428;BME280;60419;48.880;18.036;2022-09-09T15:04:33;98769.25;;;24.03;40.62
72428;BME280;60419;48.880;18.036;2022-09-09T15:07:19;98775.56;;;24.04;40.46
72428;BME280;60419;48.880;18.036;2022-09-09T15:10:05;98778.94;;;23.49;41.84
72428;BME280;60419;48.880;18.036;2022-09-09T15:12:51;98770.91;;;23.90;41.37
72428;BME280;60419;48.880;18.036;2022-09-09T15:15:36;98774.22;;;23.38;42.29
72428;BME280;60419;48.880;18.036;2022-09-09T15:18:23;98769.50;;;23.39;42.35
72428;BME280;60419;48.880;18.036;2022-09-09T15:21:09;98761.22;;;23.53;42.45
72428;BME280;60419;48.880;18.036;2022-09-09T15:23:56;98754.34;;;23.86;41.94
72428;BME280;60419;48.880;18.036;2022-09-09T15:26:42;98762.78;;;23.47;42.82
72428;BME280;60419;48.880;18.036;2022-09-09T15:29:27;98751.84;;;23.22;43.88
72428;BME280;60419;48.880;18.036;2022-09-09T15:32:13;98754.53;;;23.36;43.74
72428;BME280;60419;48.880;18.036;2022-09-09T15:34:58;98754.13;;;23.41;43.32
72428;BME280;60419;48.880;18.036;2022-09-09T15:37:44;98753.69;;;23.61;43.45
72428;BME280;60419;48.880;18.036;2022-09-09T15:40:30;98745.31;;;23.82;43.48
72428;BME280;60419;48.880;18.036;2022-09-09T15:43:17;98753.25;;;23.66;44.30
72428;BME280;60419;48.880;18.036;2022-09-09T15:49:25;98746.66;;;23.45;45.58
72428;BME280;60419;48.880;18.036;2022-09-09T15:52:11;98756.00;;;23.77;45.69
72428;BME280;60419;48.880;18.036;2022-09-09T15:54:56;98759.63;;;23.52;46.81
72428;BME280;60419;48.880;18.036;2022-09-09T15:57:42;98762.28;;;23.77;46.39
72428;BME280;60419;48.880;18.036;2022-09-09T16:00:27;98758.06;;;23.37;47.02
72428;BME280;60419;48.880;18.036;2022-09-09T16:03:13;98750.47;;;23.77;46.51
72428;BME280;60419;48.880;18.036;2022-09-09T16:05:58;98756.91;;;23.31;47.91
72428;BME280;60419;48.880;18.036;2022-09-09T16:08:45;98753.03;;;22.99;48.48
72428;BME280;60419;48.880;18.036;2022-09-09T16:11:34;98770.72;;;22.37;50.53
72428;BME280;60419;48.880;18.036;2022-09-09T16:14:20;98759.38;;;22.78;49.75
72428;BME280;60419;48.880;18.036;2022-09-09T16:17:07;98760.94;;;22.83;49.86
72428;BME280;60419;48.880;18.036;2022-09-09T16:19:52;98761.69;;;22.48;49.98
72428;BME280;60419;48.880;18.036;2022-09-09T16:22:38;98764.44;;;22.55;50.72
72428;BME280;60419;48.880;18.036;2022-09-09T16:25:25;98766.03;;;22.52;50.22
72428;BME280;60419;48.880;18.036;2022-09-09T16:28:10;98763.66;;;22.65;51.01
72428;BME280;60419;48.880;18.036;2022-09-09T16:30:56;98756.19;;;23.01;50.54